createdAt,value
2017-08-03T00:01:46.389Z,22.80
2017-08-03T00:04:12.398Z,22.80
2017-08-03T00:06:38.347Z,22.70
2017-08-03T00:09:04.325Z,22.70
2017-08-03T00:11:30.321Z,22.70
2017-08-03T00:13:56.265Z,22.70
2017-08-03T00:16:22.241Z,22.70
2017-08-03T00:18:48.230Z,22.70
2017-08-03T00:21:14.193Z,22.70
2017-08-03T00:23:40.154Z,22.60
2017-08-03T00:26:06.089Z,22.60
2017-08-03T00:28:32.789Z,22.60
2017-08-03T00:30:58.738Z,22.60
2017-08-03T00:33:24.703Z,22.60
2017-08-03T00:35:50.697Z,22.60
2017-08-03T00:38:16.646Z,22.60
2017-08-03T00:40:43.337Z,22.60
2017-08-03T00:43:09.318Z,22.60
2017-08-03T00:45:35.265Z,22.60
2017-08-03T00:48:01.254Z,22.60
2017-08-03T00:50:27.213Z,22.60
2017-08-03T00:52:53.197Z,22.60
2017-08-03T00:55:19.139Z,22.60
2017-08-03T00:57:45.861Z,22.60
2017-08-03T01:00:11.805Z,22.60
2017-08-03T01:02:37.789Z,22.60
2017-08-03T01:05:03.770Z,22.60
2017-08-03T01:07:29.717Z,22.50
2017-08-03T01:09:55.680Z,22.60
2017-08-03T01:12:21.617Z,22.60
2017-08-03T01:14:48.322Z,22.60
2017-08-03T01:17:14.329Z,22.50
2017-08-03T01:19:40.309Z,22.50
2017-08-03T01:22:06.250Z,22.50
2017-08-03T01:24:32.206Z,22.50
2017-08-03T01:26:58.170Z,22.40
2017-08-03T01:29:24.180Z,22.40
2017-08-03T01:31:50.121Z,22.50
2017-08-03T01:34:16.061Z,22.50
2017-08-03T01:36:42.049Z,22.50
2017-08-03T01:39:07.989Z,22.50
2017-08-03T01:41:33.979Z,22.50
2017-08-03T01:43:59.930Z,22.50
2017-08-03T01:46:26.679Z,22.50
2017-08-03T01:48:52.662Z,22.40
2017-08-03T01:51:19.345Z,22.30
2017-08-03T01:53:45.302Z,22.40
2017-08-03T01:56:12.055Z,22.40
2017-08-03T01:58:38.002Z,22.40
2017-08-03T02:01:03.938Z,22.40
2017-08-03T02:03:29.899Z,22.40
2017-08-03T02:05:55.834Z,22.40
2017-08-03T02:08:21.822Z,22.40
2017-08-03T02:10:47.778Z,22.40
2017-08-03T02:13:14.466Z,22.30
2017-08-03T02:15:40.421Z,22.30
2017-08-03T02:18:07.156Z,22.30
2017-08-03T02:20:33.110Z,22.30
2017-08-03T02:22:59.102Z,22.30
2017-08-03T02:25:25.055Z,22.30
2017-08-03T02:27:51.766Z,22.20
2017-08-03T02:30:17.715Z,22.20
2017-08-03T02:32:43.707Z,22.20
2017-08-03T02:35:09.645Z,22.10
2017-08-03T02:37:35.626Z,22.10
2017-08-03T02:40:02.302Z,22.10
2017-08-03T02:42:28.313Z,22.10
2017-08-03T02:44:54.262Z,22.10
2017-08-03T02:47:20.206Z,22.10
2017-08-03T02:49:46.905Z,22.00
2017-08-03T02:52:12.854Z,22.00
2017-08-03T02:54:38.841Z,22.00
2017-08-03T02:57:04.787Z,22.00
2017-08-03T02:59:30.774Z,21.90
2017-08-03T03:01:56.722Z,21.90
2017-08-03T03:04:22.705Z,21.90
2017-08-03T03:06:48.685Z,21.90
2017-08-03T03:09:14.626Z,21.90
2017-08-03T03:11:40.605Z,21.90
2017-08-03T03:14:06.588Z,21.90
2017-08-03T03:16:32.545Z,21.90
2017-08-03T03:18:58.554Z,21.90
2017-08-03T03:21:24.497Z,21.90
2017-08-03T03:23:50.436Z,21.90
2017-08-03T03:26:16.401Z,21.80
2017-08-03T03:28:43.081Z,21.80
2017-08-03T03:31:09.047Z,21.80
2017-08-03T03:33:35.018Z,21.80
2017-08-03T03:36:00.961Z,21.80
2017-08-03T03:38:27.180Z,21.80
2017-08-03T03:40:53.137Z,21.80
2017-08-03T03:43:19.098Z,21.80
2017-08-03T03:45:45.037Z,21.80
2017-08-03T03:48:11.017Z,21.80
2017-08-03T03:50:37.010Z,21.80
2017-08-03T03:53:02.966Z,21.80
2017-08-03T03:55:28.915Z,21.70
2017-08-03T03:57:55.638Z,21.70
2017-08-03T04:00:22.425Z,21.70
2017-08-03T04:02:48.375Z,21.70
2017-08-03T04:05:14.362Z,21.70
2017-08-03T04:07:40.358Z,21.70
2017-08-03T04:10:06.301Z,21.70
2017-08-03T04:12:32.326Z,21.60
2017-08-03T04:14:58.303Z,21.60
2017-08-03T04:17:24.290Z,21.60
2017-08-03T04:19:50.242Z,21.60
2017-08-03T04:22:16.190Z,21.70
2017-08-03T04:24:42.917Z,21.60
2017-08-03T04:27:09.602Z,21.70
2017-08-03T04:29:35.582Z,21.60
2017-08-03T04:32:01.595Z,21.60
2017-08-03T04:34:27.554Z,21.70
2017-08-03T04:36:54.249Z,21.70
2017-08-03T04:39:20.246Z,21.70
2017-08-03T04:41:53.197Z,21.70
2017-08-03T04:44:19.182Z,21.70
2017-08-03T04:46:45.181Z,21.70
2017-08-03T04:49:11.211Z,21.80
2017-08-03T04:51:37.242Z,21.80
2017-08-03T04:54:03.206Z,21.80
2017-08-03T04:56:29.895Z,21.80
2017-08-03T04:58:55.869Z,21.80
2017-08-03T05:01:21.857Z,21.80
2017-08-03T05:03:47.926Z,21.90
2017-08-03T05:06:13.926Z,21.90
2017-08-03T05:08:39.874Z,21.90
2017-08-03T05:11:06.623Z,21.90
2017-08-03T05:13:32.598Z,21.90
2017-08-03T05:15:58.549Z,21.90
2017-08-03T05:18:24.526Z,21.90
2017-08-03T05:20:50.522Z,21.90
2017-08-03T05:23:16.595Z,21.90
2017-08-03T05:25:42.593Z,21.90
2017-08-03T05:28:08.569Z,21.90
2017-08-03T05:30:34.513Z,21.90
2017-08-03T05:33:00.493Z,21.90
2017-08-03T05:35:27.188Z,21.90
2017-08-03T05:37:53.164Z,21.90
2017-08-03T05:40:19.120Z,21.90
2017-08-03T05:42:45.105Z,22.00
2017-08-03T05:45:11.046Z,22.00
2017-08-03T05:47:37.015Z,22.00
2017-08-03T05:50:03.014Z,22.00
2017-08-03T05:52:28.953Z,22.00
2017-08-03T05:54:54.905Z,22.10
2017-08-03T05:57:27.241Z,22.10
2017-08-03T05:59:53.190Z,22.10
2017-08-03T06:02:19.133Z,22.10
2017-08-03T06:04:45.154Z,22.20
2017-08-03T06:07:11.094Z,22.20
2017-08-03T06:09:37.050Z,22.20
2017-08-03T06:12:03.770Z,22.30
2017-08-03T06:14:30.514Z,22.40
2017-08-03T06:16:56.550Z,22.30
2017-08-03T06:19:22.530Z,22.30
2017-08-03T06:21:48.554Z,22.40
2017-08-03T06:24:14.533Z,22.40
2017-08-03T06:26:41.228Z,22.60
2017-08-03T06:29:07.217Z,22.50
2017-08-03T06:31:33.162Z,22.50
2017-08-03T06:33:59.931Z,22.50
2017-08-03T06:36:25.918Z,22.50
2017-08-03T06:38:51.897Z,22.60
2017-08-03T06:41:17.869Z,22.70
2017-08-03T06:43:43.840Z,22.70
2017-08-03T06:46:09.803Z,22.70
2017-08-03T06:48:35.806Z,22.80
2017-08-03T06:51:01.745Z,22.80
2017-08-03T06:53:27.689Z,22.80
2017-08-03T06:55:53.663Z,22.90
2017-08-03T06:58:19.622Z,22.90
2017-08-03T07:00:45.589Z,23.00
2017-08-03T07:03:12.278Z,23.10
2017-08-03T07:05:38.262Z,23.10
2017-08-03T07:08:04.218Z,23.10
2017-08-03T07:10:30.209Z,23.20
2017-08-03T07:12:56.158Z,23.20
2017-08-03T07:15:22.173Z,23.20
2017-08-03T07:17:48.254Z,23.20
2017-08-03T07:20:14.214Z,23.30
2017-08-03T07:22:40.193Z,23.30
2017-08-03T07:25:06.176Z,23.40
2017-08-03T07:27:32.138Z,23.50
2017-08-03T07:29:58.133Z,23.50
2017-08-03T07:32:24.069Z,23.50
2017-08-03T07:34:50.026Z,23.60
2017-08-03T07:37:16.014Z,23.70
2017-08-03T07:39:41.966Z,23.80
2017-08-03T07:42:08.685Z,23.80
2017-08-03T07:44:34.678Z,23.80
2017-08-03T07:47:00.627Z,23.90
2017-08-03T07:49:26.834Z,23.90
2017-08-03T07:51:53.513Z,24.10
2017-08-03T07:54:19.461Z,24.00
2017-08-03T07:56:45.524Z,24.10
2017-08-03T07:59:11.466Z,24.10
2017-08-03T08:01:37.409Z,24.20
2017-08-03T08:04:03.386Z,24.20
2017-08-03T08:06:29.362Z,24.30
2017-08-03T08:08:55.313Z,24.40
2017-08-03T08:11:21.297Z,24.40
2017-08-03T08:13:47.286Z,24.50
2017-08-03T08:16:13.233Z,24.50
2017-08-03T08:18:39.225Z,24.60
2017-08-03T08:21:05.166Z,24.60
2017-08-03T08:23:31.114Z,24.60
2017-08-03T08:25:57.074Z,24.70
2017-08-03T08:28:23.027Z,24.70
2017-08-03T08:30:49.021Z,24.60
2017-08-03T08:33:14.970Z,24.60
2017-08-03T08:35:40.952Z,24.60
2017-08-03T08:38:06.897Z,24.60
2017-08-03T08:40:32.850Z,24.60
2017-08-03T08:42:59.587Z,24.70
2017-08-03T08:45:25.529Z,24.60
2017-08-03T08:47:51.469Z,24.70
2017-08-03T08:50:17.450Z,24.70
2017-08-03T08:52:43.406Z,24.90
2017-08-03T08:55:09.426Z,24.80
2017-08-03T08:57:35.369Z,24.70
2017-08-03T09:00:01.370Z,24.80
2017-08-03T09:02:27.326Z,25.00
2017-08-03T09:04:53.298Z,25.10
2017-08-03T09:07:19.326Z,25.00
2017-08-03T09:09:45.309Z,24.80
2017-08-03T09:12:11.309Z,24.90
2017-08-03T09:14:37.998Z,24.80
2017-08-03T09:17:03.946Z,24.80
2017-08-03T09:19:30.679Z,24.60
2017-08-03T09:21:56.637Z,24.60
2017-08-03T09:24:22.577Z,24.70
2017-08-03T09:26:49.379Z,24.70
2017-08-03T09:29:15.346Z,24.60
2017-08-03T09:31:41.303Z,24.60
2017-08-03T09:34:07.305Z,24.20
2017-08-03T09:36:33.321Z,24.10
2017-08-03T09:38:59.265Z,24.20
2017-08-03T09:41:25.213Z,24.30
2017-08-03T09:43:51.210Z,24.40
2017-08-03T09:46:17.163Z,24.10
2017-08-03T09:48:43.141Z,24.30
2017-08-03T09:51:09.143Z,24.40
2017-08-03T09:53:35.094Z,24.40
2017-08-03T09:56:01.798Z,24.20
2017-08-03T09:58:27.789Z,24.20
2017-08-03T10:00:53.738Z,24.10
2017-08-03T10:03:19.673Z,24.10
2017-08-03T10:05:45.674Z,24.20
2017-08-03T10:08:12.367Z,24.30
2017-08-03T10:10:38.361Z,24.40
2017-08-03T10:13:04.307Z,24.30
2017-08-03T10:15:31.006Z,24.40
2017-08-03T10:17:56.994Z,24.40
2017-08-03T10:20:23.018Z,24.40
2017-08-03T10:22:48.970Z,24.40
2017-08-03T10:25:15.693Z,24.60
2017-08-03T10:27:41.669Z,24.60
2017-08-03T10:30:07.629Z,24.70
2017-08-03T10:32:33.613Z,24.70
2017-08-03T10:35:00.298Z,24.70
2017-08-03T10:37:26.245Z,24.70
2017-08-03T10:39:52.977Z,24.60
2017-08-03T10:42:19.679Z,24.70
2017-08-03T10:44:45.638Z,24.70
2017-08-03T10:47:11.685Z,24.60
2017-08-03T10:49:37.657Z,24.70
2017-08-03T10:52:03.633Z,24.70
2017-08-03T10:54:30.326Z,24.70
2017-08-03T10:56:56.325Z,24.70
2017-08-03T10:59:22.277Z,24.70
2017-08-03T11:01:48.232Z,24.70
2017-08-03T11:04:14.229Z,24.60
2017-08-03T11:06:40.214Z,24.60
2017-08-03T11:09:06.202Z,24.60
2017-08-03T11:11:32.141Z,24.60
2017-08-03T11:13:58.085Z,24.80
2017-08-03T11:16:24.066Z,24.80
2017-08-03T11:18:50.054Z,24.80
2017-08-03T11:21:16.030Z,24.80
2017-08-03T11:23:42.762Z,24.90
2017-08-03T11:26:08.763Z,24.90
2017-08-03T11:28:35.453Z,25.00
2017-08-03T11:31:01.423Z,25.00
2017-08-03T11:33:27.404Z,24.90
2017-08-03T11:35:54.090Z,24.80
2017-08-03T11:38:20.079Z,24.80
2017-08-03T11:40:46.067Z,24.70
2017-08-03T11:43:12.026Z,24.60
2017-08-03T11:45:38.020Z,24.60
2017-08-03T11:48:03.966Z,24.70
2017-08-03T11:50:30.762Z,24.70
2017-08-03T11:52:56.710Z,24.70
2017-08-03T11:55:23.457Z,24.80
2017-08-03T11:57:49.442Z,24.80
2017-08-03T12:00:15.417Z,24.90
2017-08-03T12:02:41.379Z,24.90
2017-08-03T12:05:08.103Z,25.00
2017-08-03T12:07:34.789Z,25.00
2017-08-03T12:10:00.782Z,25.00
2017-08-03T12:12:26.730Z,25.00
2017-08-03T12:14:52.674Z,25.00
2017-08-03T12:17:18.865Z,24.90
2017-08-03T12:19:45.577Z,25.00
2017-08-03T12:22:11.533Z,25.00
2017-08-03T12:24:37.505Z,25.00
2017-08-03T12:27:04.230Z,25.00
2017-08-03T12:29:30.909Z,25.00
2017-08-03T12:31:56.890Z,25.00
2017-08-03T12:34:22.861Z,25.10
2017-08-03T12:36:48.796Z,25.10
2017-08-03T12:39:14.783Z,25.20
2017-08-03T12:41:40.735Z,25.40
2017-08-03T12:44:06.722Z,25.50
2017-08-03T12:46:32.669Z,25.60
2017-08-03T12:48:58.950Z,25.60
2017-08-03T12:51:24.918Z,25.80
2017-08-03T12:53:50.865Z,25.90
2017-08-03T12:56:16.863Z,25.90
2017-08-03T12:58:42.811Z,25.80
2017-08-03T13:01:08.757Z,25.80
2017-08-03T13:03:34.733Z,25.80
2017-08-03T13:06:00.722Z,25.90
2017-08-03T13:08:26.665Z,25.90
2017-08-03T13:10:52.611Z,25.80
2017-08-03T13:13:19.341Z,25.80
2017-08-03T13:15:45.282Z,25.80
2017-08-03T13:18:11.262Z,26.00
2017-08-03T13:20:37.249Z,25.90
2017-08-03T13:23:04.005Z,26.00
2017-08-03T13:25:29.982Z,26.00
2017-08-03T13:27:56.670Z,26.30
2017-08-03T13:30:22.651Z,26.20
2017-08-03T13:32:48.607Z,26.50
2017-08-03T13:35:14.584Z,26.40
2017-08-03T13:37:40.538Z,26.50
2017-08-03T13:40:06.519Z,26.60
2017-08-03T13:42:32.469Z,26.70
2017-08-03T13:44:59.198Z,26.80
2017-08-03T13:47:25.153Z,26.80
2017-08-03T13:49:51.097Z,26.90
2017-08-03T13:52:17.837Z,27.00
2017-08-03T13:54:44.590Z,27.20
2017-08-03T13:57:10.553Z,27.20
2017-08-03T13:59:36.505Z,27.00
2017-08-03T14:02:02.493Z,27.20
2017-08-03T14:04:28.438Z,27.40
2017-08-03T14:06:54.464Z,27.30
2017-08-03T14:09:20.414Z,27.30
2017-08-03T14:11:47.093Z,27.30
2017-08-03T14:14:13.074Z,27.30
2017-08-03T14:16:39.021Z,27.30
2017-08-03T14:19:05.066Z,27.20
2017-08-03T14:21:31.750Z,27.40
2017-08-03T14:23:57.693Z,27.40
2017-08-03T14:26:24.409Z,27.40
2017-08-03T14:28:51.093Z,27.50
2017-08-03T14:31:17.074Z,27.50
2017-08-03T14:33:43.034Z,27.60
2017-08-03T14:36:09.091Z,27.80
2017-08-03T14:38:35.085Z,28.50
2017-08-03T14:41:01.801Z,29.90
2017-08-03T14:43:28.513Z,30.10
2017-08-03T14:45:55.243Z,30.10
2017-08-03T14:48:21.987Z,29.80
2017-08-03T14:50:48.690Z,30.10
2017-08-03T14:53:14.642Z,30.10
2017-08-03T14:55:40.625Z,30.60
2017-08-03T14:58:06.574Z,30.70
2017-08-03T15:00:32.717Z,31.10
2017-08-03T15:02:58.679Z,30.80
2017-08-03T15:05:24.635Z,30.80
2017-08-03T15:07:50.653Z,30.90
2017-08-03T15:10:16.607Z,31.50
2017-08-03T15:12:42.550Z,31.40
2017-08-03T15:15:08.867Z,31.50
2017-08-03T15:17:34.825Z,31.70
2017-08-03T15:20:00.814Z,31.40
2017-08-03T15:22:27.545Z,31.20
2017-08-03T15:24:54.230Z,31.00
2017-08-03T15:27:20.218Z,31.00
2017-08-03T15:29:46.200Z,31.00
2017-08-03T15:32:12.145Z,30.60
2017-08-03T15:34:38.133Z,30.80
2017-08-03T15:37:04.081Z,31.10
2017-08-03T15:39:30.039Z,31.00
2017-08-03T15:41:56.002Z,30.90
2017-08-03T15:44:21.954Z,30.80
2017-08-03T15:46:47.934Z,30.80
2017-08-03T15:49:13.879Z,30.90
2017-08-03T15:51:39.949Z,30.80
2017-08-03T15:54:05.949Z,31.00
2017-08-03T15:56:31.919Z,31.00
2017-08-03T15:58:57.869Z,30.80
2017-08-03T16:01:23.887Z,30.60
2017-08-03T16:03:49.847Z,30.50
2017-08-03T16:06:15.847Z,30.40
2017-08-03T16:08:41.798Z,30.40
2017-08-03T16:11:07.770Z,30.40
2017-08-03T16:13:33.766Z,30.70
2017-08-03T16:15:59.709Z,30.60
2017-08-03T16:18:26.403Z,30.50
2017-08-03T16:20:52.416Z,30.50
2017-08-03T16:23:18.406Z,30.40
2017-08-03T16:25:44.384Z,30.40
2017-08-03T16:28:10.331Z,30.40
2017-08-03T16:30:36.310Z,30.40
2017-08-03T16:33:02.293Z,30.50
2017-08-03T16:35:28.983Z,30.50
2017-08-03T16:37:55.006Z,30.50
2017-08-03T16:40:20.961Z,30.50
2017-08-03T16:42:46.910Z,30.50
2017-08-03T16:45:12.891Z,30.50
2017-08-03T16:47:38.838Z,30.40
2017-08-03T16:50:04.819Z,30.40
2017-08-03T16:52:31.546Z,30.40
2017-08-03T16:54:57.489Z,30.40
2017-08-03T16:57:23.482Z,30.50
2017-08-03T16:59:49.433Z,30.30
2017-08-03T17:02:15.390Z,30.20
2017-08-03T17:04:42.143Z,30.20
2017-08-03T17:07:08.089Z,30.20
2017-08-03T17:09:34.045Z,30.20
2017-08-03T17:12:00.022Z,30.00
2017-08-03T17:14:26.004Z,30.00
2017-08-03T17:16:51.943Z,29.90
2017-08-03T17:19:18.670Z,30.00
2017-08-03T17:21:44.671Z,29.90
2017-08-03T17:24:10.627Z,29.80
2017-08-03T17:26:36.653Z,29.70
2017-08-03T17:29:02.666Z,29.70
2017-08-03T17:31:28.613Z,29.70
2017-08-03T17:33:54.613Z,29.60
2017-08-03T17:36:20.570Z,29.60
2017-08-03T17:38:46.560Z,29.50
2017-08-03T17:41:12.535Z,29.50
2017-08-03T17:43:38.506Z,29.40
2017-08-03T17:46:04.506Z,29.50
2017-08-03T17:48:30.504Z,29.30
2017-08-03T17:50:56.457Z,29.30
2017-08-03T17:53:23.186Z,29.10
2017-08-03T17:55:49.878Z,29.00
2017-08-03T17:58:15.897Z,29.00
2017-08-03T18:00:41.862Z,28.90
2017-08-03T18:03:07.853Z,28.80
2017-08-03T18:05:34.546Z,28.80
2017-08-03T18:08:00.507Z,28.70
2017-08-03T18:10:26.470Z,28.80
2017-08-03T18:12:52.760Z,28.60
2017-08-03T18:15:18.810Z,28.50
2017-08-03T18:17:44.767Z,28.60
2017-08-03T18:20:10.750Z,28.50
2017-08-03T18:22:36.778Z,28.50
2017-08-03T18:25:02.846Z,28.40
2017-08-03T18:27:28.837Z,28.40
2017-08-03T18:29:54.847Z,28.20
2017-08-03T18:32:20.852Z,28.20
2017-08-03T18:34:46.842Z,28.10
2017-08-03T18:37:12.807Z,28.00
2017-08-03T18:39:39.540Z,27.90
2017-08-03T18:42:05.533Z,27.90
2017-08-03T18:44:31.478Z,27.80
2017-08-03T18:46:57.462Z,27.80
2017-08-03T18:49:24.209Z,27.80
2017-08-03T18:51:50.219Z,27.70
2017-08-03T18:54:16.349Z,27.70
2017-08-03T18:56:42.301Z,27.60
2017-08-03T18:59:08.254Z,27.60
2017-08-03T19:01:34.295Z,27.50
2017-08-03T19:04:00.319Z,27.50
2017-08-03T19:06:26.355Z,27.50
2017-08-03T19:08:52.305Z,27.40
2017-08-03T19:11:18.278Z,27.20
2017-08-03T19:13:45.067Z,27.20
2017-08-03T19:16:11.058Z,27.20
2017-08-03T19:18:37.311Z,27.20
2017-08-03T19:21:04.386Z,27.20
2017-08-03T19:23:30.373Z,27.20
2017-08-03T19:25:56.360Z,27.10
2017-08-03T19:28:22.342Z,27.00
2017-08-03T19:30:48.302Z,27.00
2017-08-03T19:33:14.327Z,27.00
2017-08-03T19:35:40.314Z,26.80
2017-08-03T19:38:07.071Z,26.70
2017-08-03T19:40:33.072Z,26.70
2017-08-03T19:42:59.073Z,26.60
2017-08-03T19:45:25.022Z,26.60
2017-08-03T19:47:51.083Z,26.70
2017-08-03T19:50:17.050Z,26.60
2017-08-03T19:52:43.104Z,26.50
2017-08-03T19:55:09.091Z,26.60
2017-08-03T19:57:35.066Z,26.60
2017-08-03T20:00:01.053Z,26.60
2017-08-03T20:02:27.066Z,26.50
2017-08-03T20:04:53.761Z,26.40
2017-08-03T20:07:31.012Z,26.40
2017-08-03T20:09:59.021Z,26.40
2017-08-03T20:12:25.001Z,26.30
2017-08-03T20:14:50.959Z,26.30
2017-08-03T20:17:16.943Z,26.30
2017-08-03T20:19:42.933Z,26.20
2017-08-03T20:22:08.951Z,26.10
2017-08-03T20:24:35.706Z,26.10
2017-08-03T20:27:01.731Z,26.10
2017-08-03T20:29:27.729Z,26.10
2017-08-03T20:31:53.674Z,26.10
2017-08-03T20:34:19.645Z,26.00
2017-08-03T20:36:45.654Z,25.90
2017-08-03T20:39:11.633Z,25.90
2017-08-03T20:41:38.349Z,25.70
2017-08-03T20:44:05.033Z,25.60
2017-08-03T20:46:31.025Z,25.60
2017-08-03T20:48:56.979Z,25.60
2017-08-03T20:51:22.933Z,25.60
2017-08-03T20:53:48.949Z,25.50
2017-08-03T20:56:14.899Z,25.40
2017-08-03T20:58:40.878Z,25.40
2017-08-03T21:01:06.825Z,25.20
2017-08-03T21:03:32.797Z,25.30
2017-08-03T21:05:58.786Z,25.20
2017-08-03T21:08:24.745Z,25.20
2017-08-03T21:10:50.746Z,25.10
2017-08-03T21:13:16.710Z,25.00
2017-08-03T21:15:42.661Z,25.00
2017-08-03T21:18:08.636Z,25.00
2017-08-03T21:20:34.582Z,24.90
2017-08-03T21:23:00.671Z,24.90
2017-08-03T21:25:26.613Z,24.90
2017-08-03T21:27:52.591Z,24.80
2017-08-03T21:30:18.586Z,24.80
2017-08-03T21:32:44.545Z,24.80
2017-08-03T21:35:11.248Z,24.60
2017-08-03T21:37:37.230Z,24.70
2017-08-03T21:40:03.207Z,24.70
2017-08-03T21:42:29.182Z,24.40
2017-08-03T21:44:55.121Z,24.40
2017-08-03T21:47:21.096Z,24.50
2017-08-03T21:49:47.049Z,24.40
2017-08-03T21:52:13.030Z,24.30
2017-08-03T21:54:38.992Z,24.20
2017-08-03T21:57:05.014Z,24.00
2017-08-03T21:59:30.965Z,24.10
2017-08-03T22:01:56.962Z,24.20
2017-08-03T22:04:22.938Z,24.20
2017-08-03T22:06:48.890Z,24.20
2017-08-03T22:09:15.601Z,24.00
2017-08-03T22:11:41.574Z,24.00
2017-08-03T22:14:07.572Z,24.00
2017-08-03T22:16:33.519Z,23.90
2017-08-03T22:18:59.484Z,23.80
2017-08-03T22:21:25.454Z,23.90
2017-08-03T22:23:52.149Z,23.60
2017-08-03T22:26:18.150Z,23.60
2017-08-03T22:28:44.106Z,23.50
2017-08-03T22:31:10.834Z,23.60
2017-08-03T22:33:36.813Z,23.60
2017-08-03T22:36:02.761Z,23.40
2017-08-03T22:38:28.764Z,23.40
2017-08-03T22:40:54.718Z,23.50
2017-08-03T22:43:20.662Z,23.60
2017-08-03T22:45:47.402Z,23.00
2017-08-03T22:48:13.358Z,22.90
2017-08-03T22:50:39.305Z,22.90
2017-08-03T22:53:06.033Z,23.30
2017-08-03T22:55:32.722Z,23.30
2017-08-03T22:57:58.669Z,23.20
2017-08-03T23:00:25.393Z,23.40
2017-08-03T23:02:52.093Z,23.50
2017-08-03T23:05:18.040Z,23.50
2017-08-03T23:07:44.038Z,23.50
2017-08-03T23:10:09.990Z,23.40
2017-08-03T23:12:35.973Z,23.30
2017-08-03T23:15:01.919Z,23.40
2017-08-03T23:17:27.865Z,23.30
2017-08-03T23:19:54.590Z,23.20
2017-08-03T23:22:21.382Z,23.10
2017-08-03T23:24:47.382Z,23.10
2017-08-03T23:27:13.330Z,23.00
2017-08-03T23:29:40.038Z,23.10
2017-08-03T23:32:06.044Z,23.10
2017-08-03T23:34:32.037Z,23.10
2017-08-03T23:36:57.989Z,23.00
2017-08-03T23:39:23.939Z,23.00
2017-08-03T23:41:49.925Z,23.00
2017-08-03T23:44:15.872Z,22.90
2017-08-03T23:46:42.601Z,22.80
2017-08-03T23:49:08.581Z,22.80
2017-08-03T23:51:34.546Z,22.90
2017-08-03T23:54:00.529Z,22.80
2017-08-03T23:56:26.479Z,22.80
2017-08-03T23:58:52.513Z,22.90
